Time;durP1;ratioP1;P1;durP2;ratioP2;P2;SDS_P1;SDS_P2;PMS_P1;PMS_P2;Temp;Humidity;BMP_temperature;BMP_pressure;BME280_temperature;BME280_humidity;BME280_pressure;Samples;Min_cycle;Max_cycle;Signal;HPM_P1;HPM_P2
2022/05/05 00:01:18;;;;;;;2.25;1.02;;;5.20;59.20;;;;;;4185961;28;20319;-81
2022/05/05 00:03:18;;;;;;;5.07;1.02;;;5.20;59.20;;;;;;4199771;28;20389;-81
2022/05/05 00:05:22;;;;;;;3.05;0.88;;;5.10;59.20;;;;;;4183913;28;20055;-81
2022/05/05 00:07:24;;;;;;;6.63;1.33;;;5.10;59.40;;;;;;4202696;28;20130;-82
2022/05/05 00:09:24;;;;;;;4.20;1.00;;;5.10;59.40;;;;;;4185372;28;20473;-82
2022/05/05 00:16:04;;;;;;;6.07;1.40;;;5.00;59.50;;;;;;4175417;28;20016;-82
2022/05/05 00:18:05;;;;;;;4.95;1.23;;;5.00;59.50;;;;;;4184220;28;20032;-82
2022/05/05 00:20:06;;;;;;;3.03;1.10;;;5.00;59.70;;;;;;4193633;28;20031;-81
2022/05/05 00:22:08;;;;;;;5.38;1.20;;;5.00;59.80;;;;;;4194309;28;20101;-82
2022/05/05 00:24:09;;;;;;;5.80;1.30;;;4.90;59.80;;;;;;4200894;28;22013;-82
2022/05/05 00:26:09;;;;;;;3.95;1.50;;;4.90;60.00;;;;;;4186005;28;20043;-82
2022/05/05 00:28:10;;;;;;;5.72;1.30;;;4.90;60.20;;;;;;4185282;28;20040;-83
2022/05/05 00:30:11;;;;;;;5.43;1.27;;;4.90;60.40;;;;;;4186854;28;20020;-82
2022/05/05 00:32:12;;;;;;;6.78;1.27;;;4.90;60.50;;;;;;4182137;28;20090;-82
2022/05/05 00:34:13;;;;;;;9.38;1.40;;;4.90;60.80;;;;;;4188758;28;20029;-81
2022/05/05 00:36:13;;;;;;;6.28;1.20;;;4.90;60.80;;;;;;4182369;28;20482;-83
2022/05/05 00:38:14;;;;;;;7.00;1.83;;;4.90;60.90;;;;;;4189616;28;20032;-82
2022/05/05 00:40:15;;;;;;;3.90;1.17;;;4.80;61.00;;;;;;4187925;28;20164;-82
2022/05/05 00:42:16;;;;;;;5.53;1.60;;;4.80;61.00;;;;;;4183863;28;20473;-82
2022/05/05 00:44:17;;;;;;;3.08;1.33;;;4.80;61.20;;;;;;4192115;28;20099;-82
2022/05/05 00:46:18;;;;;;;3.17;1.42;;;4.80;61.30;;;;;;4186553;28;20525;-82
2022/05/05 00:48:23;;;;;;;7.57;1.23;;;4.80;61.30;;;;;;4192213;28;20028;-82
2022/05/05 00:50:25;;;;;;;4.32;1.30;;;4.80;61.40;;;;;;4188784;28;20047;-82
2022/05/05 00:52:27;;;;;;;3.90;1.30;;;4.80;61.50;;;;;;4187373;28;20036;-82
2022/05/05 00:54:27;;;;;;;6.43;1.42;;;4.80;61.70;;;;;;4178596;28;20553;-82
2022/05/05 00:56:29;;;;;;;6.47;1.40;;;4.80;61.70;;;;;;4180519;28;20032;-81
2022/05/05 00:58:30;;;;;;;4.82;1.10;;;4.80;61.90;;;;;;4195060;28;20401;-82
2022/05/05 01:00:32;;;;;;;2.63;1.20;;;4.70;61.90;;;;;;4187583;28;20052;-81
2022/05/05 01:02:34;;;;;;;9.35;1.38;;;4.70;62.00;;;;;;4185519;28;20017;-82
2022/05/05 01:04:36;;;;;;;3.60;1.05;;;4.70;62.00;;;;;;4179874;28;20036;-81
2022/05/05 01:06:37;;;;;;;5.35;1.45;;;4.70;62.00;;;;;;4178256;28;20105;-81
2022/05/05 01:08:37;;;;;;;3.95;1.17;;;4.70;61.90;;;;;;4186630;28;20501;-81
2022/05/05 01:10:38;;;;;;;3.63;1.35;;;4.70;61.90;;;;;;4186959;28;20118;-81
2022/05/05 01:12:39;;;;;;;4.57;1.40;;;4.70;61.90;;;;;;4187329;28;20028;-82
2022/05/05 01:14:39;;;;;;;4.68;1.02;;;4.60;61.90;;;;;;4178786;28;20119;-81
2022/05/05 01:16:40;;;;;;;7.63;1.35;;;4.60;61.90;;;;;;4184546;28;20442;-81
2022/05/05 01:18:42;;;;;;;2.95;1.02;;;4.60;61.90;;;;;;4181455;28;20024;-81
2022/05/05 01:20:52;;;;;;;3.97;1.17;;;4.60;61.90;;;;;;4181280;28;20487;-81
2022/05/05 01:22:52;;;;;;;4.20;1.33;;;4.70;62.10;;;;;;4187321;28;20127;-81
2022/05/05 01:29:31;;;;;;;4.68;1.25;;;4.60;62.10;;;;;;4182251;28;20039;-81
2022/05/05 01:31:32;;;;;;;3.78;1.23;;;4.50;62.10;;;;;;4183927;28;20462;-81
2022/05/05 01:33:33;;;;;;;6.82;1.33;;;4.50;62.20;;;;;;4192941;28;20052;-81
2022/05/05 01:35:34;;;;;;;4.28;1.25;;;4.50;62.30;;;;;;4185980;28;20549;-81
2022/05/05 01:37:34;;;;;;;3.60;1.55;;;4.50;62.30;;;;;;4179046;28;20090;-81
2022/05/05 01:39:35;;;;;;;2.85;1.20;;;4.50;62.40;;;;;;4201789;28;21768;-81
2022/05/05 01:41:36;;;;;;;5.40;1.30;;;4.50;62.40;;;;;;4187239;28;20052;-81
2022/05/05 01:43:37;;;;;;;4.15;1.33;;;4.50;62.40;;;;;;4182047;28;20032;-81
2022/05/05 01:45:38;;;;;;;7.72;1.70;;;4.50;63.20;;;;;;4181192;28;20115;-82
2022/05/05 01:47:39;;;;;;;4.30;1.50;;;4.40;62.50;;;;;;4199469;28;20024;-82
2022/05/05 01:49:40;;;;;;;2.60;1.27;;;4.50;62.60;;;;;;4184682;28;20048;-82
2022/05/05 01:51:40;;;;;;;5.15;1.40;;;4.50;62.80;;;;;;4181730;28;20025;-82
2022/05/05 01:53:41;;;;;;;7.20;1.33;;;4.50;62.80;;;;;;4183007;28;20035;-82
2022/05/05 01:55:42;;;;;;;3.88;1.60;;;4.50;62.90;;;;;;4184455;28;20508;-82
2022/05/05 01:57:43;;;;;;;6.68;1.35;;;4.50;63.00;;;;;;4184677;28;20033;-82
2022/05/05 01:59:44;;;;;;;2.80;1.30;;;4.40;63.10;;;;;;4185664;28;20031;-82
2022/05/05 02:01:45;;;;;;;2.83;1.20;;;4.40;63.20;;;;;;4200580;28;20494;-82
2022/05/05 02:03:46;;;;;;;6.72;1.55;;;4.40;63.20;;;;;;4185022;28;20104;-82
2022/05/05 02:05:47;;;;;;;5.90;1.30;;;4.40;63.30;;;;;;4180043;28;20401;-82
2022/05/05 02:07:48;;;;;;;3.22;1.25;;;4.40;63.50;;;;;;4180518;28;20032;-82
2022/05/05 02:09:48;;;;;;;3.10;1.27;;;4.50;63.70;;;;;;4199935;28;20021;-82
2022/05/05 02:11:49;;;;;;;4.03;1.27;;;4.40;63.70;;;;;;4195670;28;20119;-82
2022/05/05 02:13:50;;;;;;;4.38;1.27;;;4.40;63.90;;;;;;4198204;28;20029;-83
2022/05/05 02:15:51;;;;;;;4.15;1.42;;;4.40;64.00;;;;;;4185293;28;20470;-82
2022/05/05 02:17:51;;;;;;;4.97;1.30;;;4.40;64.00;;;;;;4181092;28;20024;-82
2022/05/05 02:19:52;;;;;;;6.00;1.58;;;4.40;64.10;;;;;;4186017;28;20017;-82
2022/05/05 02:21:52;;;;;;;4.25;1.55;;;4.40;64.20;;;;;;4184092;28;20021;-82
2022/05/05 02:23:53;;;;;;;4.70;1.60;;;4.40;64.20;;;;;;4190146;28;20107;-82
2022/05/05 02:25:54;;;;;;;3.83;1.30;;;4.40;64.30;;;;;;4196690;28;20024;-82
2022/05/05 02:27:54;;;;;;;6.22;1.70;;;4.40;64.40;;;;;;4194744;28;20103;-82
2022/05/05 02:29:55;;;;;;;5.72;1.70;;;4.40;64.40;;;;;;4202542;28;20341;-81
2022/05/05 02:31:56;;;;;;;6.32;1.90;;;4.40;64.50;;;;;;4209711;28;20051;-82
2022/05/05 02:33:56;;;;;;;3.53;1.42;;;4.40;64.50;;;;;;4171059;28;20048;-82
2022/05/05 02:40:36;;;;;;;6.13;1.50;;;4.40;64.70;;;;;;4199786;28;20036;-82
2022/05/05 02:42:36;;;;;;;8.63;1.80;;;4.30;64.80;;;;;;4188801;28;20025;-82
2022/05/05 02:44:37;;;;;;;5.93;1.63;;;4.30;64.60;;;;;;4189299;28;20067;-82
2022/05/05 02:46:38;;;;;;;8.73;1.90;;;4.30;64.70;;;;;;4205625;28;20477;-82
2022/05/05 02:48:38;;;;;;;6.22;1.95;;;4.30;64.80;;;;;;4187477;28;20086;-81
2022/05/05 02:50:39;;;;;;;6.85;1.98;;;4.30;64.70;;;;;;4193431;28;20035;-81
2022/05/05 02:52:39;;;;;;;6.03;1.60;;;4.30;64.80;;;;;;4186930;28;20043;-82
2022/05/05 02:54:53;;;;;;;6.93;2.03;;;4.30;64.90;;;;;;4190387;28;20024;-82
2022/05/05 02:56:53;;;;;;;4.25;1.63;;;4.30;64.90;;;;;;4185528;28;20532;-82
2022/05/05 02:58:54;;;;;;;3.10;1.58;;;4.30;65.00;;;;;;4182615;28;20029;-82
2022/05/05 03:00:55;;;;;;;5.13;1.85;;;4.30;65.10;;;;;;4182966;28;20702;-82
2022/05/05 03:02:56;;;;;;;9.27;2.00;;;4.30;65.20;;;;;;4181219;28;20032;-82
2022/05/05 03:04:56;;;;;;;5.60;1.90;;;4.20;65.20;;;;;;4192492;28;20033;-82
2022/05/05 03:06:57;;;;;;;5.95;1.77;;;4.20;65.30;;;;;;4198150;28;20038;-81
2022/05/05 03:08:58;;;;;;;3.17;1.63;;;4.20;65.30;;;;;;4188827;28;20032;-82
2022/05/05 03:10:58;;;;;;;3.25;1.65;;;4.20;65.50;;;;;;4185702;28;20043;-82
2022/05/05 03:12:59;;;;;;;6.22;1.90;;;4.20;65.50;;;;;;4190793;28;20665;-82
2022/05/05 03:15:00;;;;;;;6.75;2.08;;;4.20;65.60;;;;;;4190037;28;20067;-82
2022/05/05 03:17:00;;;;;;;5.20;1.70;;;4.30;65.60;;;;;;4199025;28;20032;-82
2022/05/05 03:19:01;;;;;;;8.98;2.00;;;4.20;65.60;;;;;;4188588;28;20036;-83
2022/05/05 03:21:02;;;;;;;5.68;2.08;;;4.20;65.70;;;;;;4191697;28;20032;-82
2022/05/05 03:23:03;;;;;;;11.02;2.10;;;4.10;65.70;;;;;;4185288;28;20033;-82
2022/05/05 03:25:04;;;;;;;3.15;1.73;;;4.20;65.80;;;;;;4185574;28;20036;-83
2022/05/05 03:27:05;;;;;;;9.10;2.20;;;4.20;65.80;;;;;;4186469;28;20029;-83
2022/05/05 03:29:05;;;;;;;6.55;2.03;;;4.20;65.90;;;;;;4188494;28;20078;-82
2022/05/05 03:31:06;;;;;;;6.35;2.35;;;4.20;66.00;;;;;;4186877;28;20032;-81
2022/05/05 03:33:07;;;;;;;4.20;2.05;;;4.10;66.00;;;;;;4199733;28;20141;-81
2022/05/05 03:35:09;;;;;;;6.53;2.10;;;4.10;66.10;;;;;;4186394;28;20050;-81
2022/05/05 03:37:10;;;;;;;5.35;1.88;;;4.10;66.20;;;;;;4187413;28;20108;-82
2022/05/05 03:39:11;;;;;;;7.80;2.20;;;4.20;66.40;;;;;;4186121;28;20078;-82
2022/05/05 03:41:11;;;;;;;5.88;2.55;;;4.10;66.30;;;;;;4189836;28;21152;-82
2022/05/05 03:43:12;;;;;;;7.05;2.30;;;4.10;66.40;;;;;;4188252;28;20044;-82
2022/05/05 03:45:13;;;;;;;6.22;2.38;;;4.10;67.20;;;;;;4186370;28;20027;-82
2022/05/05 03:47:13;;;;;;;4.85;2.25;;;4.10;66.50;;;;;;4186342;28;20040;-81
2022/05/05 03:49:14;;;;;;;6.88;2.03;;;4.10;66.50;;;;;;4201427;28;20028;-82
2022/05/05 03:51:14;;;;;;;5.85;2.40;;;4.10;66.60;;;;;;4188046;28;20036;-82
2022/05/05 03:53:15;;;;;;;6.97;2.42;;;4.10;66.60;;;;;;4189054;28;20036;-82
2022/05/05 03:55:16;;;;;;;5.35;2.40;;;4.10;66.70;;;;;;4183025;28;20028;-81
2022/05/05 03:57:16;;;;;;;8.48;2.63;;;4.10;66.70;;;;;;4186735;28;20564;-82
2022/05/05 03:59:17;;;;;;;6.32;2.80;;;4.10;66.90;;;;;;4185809;28;20103;-82
2022/05/05 04:01:18;;;;;;;9.32;2.78;;;4.00;66.80;;;;;;4183987;28;20107;-82
2022/05/05 04:03:30;;;;;;;7.03;2.70;;;4.10;66.90;;;;;;4189072;28;20070;-82
2022/05/05 04:05:31;;;;;;;5.00;2.67;;;4.00;67.70;;;;;;4192788;28;20533;-82
2022/05/05 04:07:32;;;;;;;6.20;2.47;;;4.00;66.90;;;;;;4181974;28;20027;-83
2022/05/05 04:09:32;;;;;;;4.00;2.63;;;4.10;67.00;;;;;;4201649;28;20523;-82
2022/05/05 04:11:34;;;;;;;6.72;2.60;;;4.10;67.10;;;;;;4181359;28;20569;-82
2022/05/05 04:13:35;;;;;;;5.93;2.65;;;4.10;67.10;;;;;;4182384;28;20452;-82
2022/05/05 04:15:36;;;;;;;7.30;3.00;;;4.10;67.20;;;;;;4187079;28;20101;-82
2022/05/05 04:17:36;;;;;;;7.88;3.00;;;4.10;67.30;;;;;;4182624;28;20119;-82
2022/05/05 04:19:39;;;;;;;9.90;3.00;;;4.10;67.40;;;;;;4185810;28;20037;-83
2022/05/05 04:21:39;;;;;;;6.95;3.60;;;4.10;67.50;;;;;;4185233;28;20025;-83
2022/05/05 04:23:40;;;;;;;10.18;3.40;;;4.10;67.60;;;;;;4185513;28;20035;-81
2022/05/05 04:25:41;;;;;;;10.07;4.22;;;4.10;67.80;;;;;;4188404;28;20075;-82
2022/05/05 04:27:43;;;;;;;9.07;4.30;;;4.10;68.00;;;;;;4178648;28;20043;-82
2022/05/05 04:29:44;;;;;;;8.63;3.80;;;4.10;68.10;;;;;;4193361;28;20084;-82
2022/05/05 04:31:45;;;;;;;10.98;4.75;;;4.20;68.50;;;;;;4185090;28;20067;-82
2022/05/05 04:33:46;;;;;;;12.77;4.72;;;4.20;68.80;;;;;;4187508;28;20489;-82
2022/05/05 04:35:48;;;;;;;15.30;4.82;;;4.20;69.20;;;;;;4196469;28;20123;-82
2022/05/05 04:37:49;;;;;;;17.25;5.57;;;4.30;70.10;;;;;;4191427;28;20029;-82
2022/05/05 04:39:50;;;;;;;17.85;5.03;;;4.40;70.50;;;;;;4183803;28;20151;-83
2022/05/05 04:41:50;;;;;;;10.05;5.18;;;4.40;70.90;;;;;;4201350;28;20017;-84
2022/05/05 04:43:51;;;;;;;10.30;5.13;;;4.50;71.20;;;;;;4187058;28;20029;-82
2022/05/05 04:45:52;;;;;;;12.48;5.93;;;4.60;71.30;;;;;;4183369;28;20029;-83
2022/05/05 04:47:53;;;;;;;12.45;5.38;;;4.70;71.60;;;;;;4182921;28;20028;-82
2022/05/05 04:49:56;;;;;;;17.85;5.68;;;4.80;72.10;;;;;;4190601;28;20032;-82
2022/05/05 04:51:57;;;;;;;10.57;6.03;;;4.90;72.10;;;;;;4181400;28;20075;-82
2022/05/05 04:53:58;;;;;;;12.80;5.85;;;4.90;72.20;;;;;;4179110;28;20041;-82
2022/05/05 04:55:58;;;;;;;14.32;5.47;;;5.00;72.30;;;;;;4175290;28;20024;-82
2022/05/05 04:57:59;;;;;;;12.93;5.72;;;5.10;72.40;;;;;;4183002;28;20111;-82
2022/05/05 05:00:00;;;;;;;21.30;6.25;;;5.20;72.60;;;;;;4179685;28;20329;-82
2022/05/05 05:02:02;;;;;;;15.20;5.45;;;5.40;72.70;;;;;;4185265;28;20122;-83
2022/05/05 05:04:03;;;;;;;14.93;5.60;;;5.40;72.50;;;;;;4176151;28;20025;-82
2022/05/05 05:06:06;;;;;;;11.50;5.88;;;5.60;72.40;;;;;;4190801;28;20085;-82
2022/05/05 05:08:06;;;;;;;18.23;5.68;;;5.70;72.10;;;;;;4180623;28;20028;-82
2022/05/05 05:10:08;;;;;;;11.63;6.03;;;5.70;71.90;;;;;;4185735;28;20085;-90
2022/05/05 05:12:09;;;;;;;9.70;5.43;;;5.90;71.60;;;;;;4202151;28;20021;-87
2022/05/05 05:14:10;;;;;;;10.52;5.38;;;6.00;71.40;;;;;;4179583;28;20081;-87
2022/05/05 05:16:10;;;;;;;20.20;6.68;;;6.10;71.00;;;;;;4192165;28;20052;-87
2022/05/05 05:18:11;;;;;;;15.68;7.45;;;6.20;70.80;;;;;;4175400;28;20045;-87
2022/05/05 05:20:12;;;;;;;15.13;7.25;;;6.40;70.30;;;;;;4183815;28;20078;-89
2022/05/05 05:22:13;;;;;;;14.75;6.82;;;6.40;70.10;;;;;;4182560;28;20491;-87
2022/05/05 05:24:17;;;;;;;24.77;5.60;;;6.50;70.00;;;;;;4186423;28;20047;-87
2022/05/05 05:26:17;;;;;;;11.52;5.28;;;6.60;69.90;;;;;;4182057;28;20020;-87
2022/05/05 05:28:18;;;;;;;13.27;4.97;;;6.80;69.80;;;;;;4193302;28;20521;-90
2022/05/05 05:30:19;;;;;;;9.82;5.50;;;6.80;69.60;;;;;;4190583;28;20040;-87
2022/05/05 05:32:22;;;;;;;10.77;4.95;;;6.90;69.40;;;;;;4169378;28;20029;-87
2022/05/05 05:34:23;;;;;;;13.98;6.18;;;7.00;69.20;;;;;;4186048;28;20071;-87
2022/05/05 05:36:24;;;;;;;15.25;7.50;;;7.10;68.70;;;;;;4199881;28;20025;-87
2022/05/05 05:38:25;;;;;;;12.93;5.95;;;7.20;68.40;;;;;;4200051;28;20528;-88
2022/05/05 05:40:26;;;;;;;13.00;6.72;;;7.30;68.20;;;;;;4191614;28;20029;-88
2022/05/05 05:42:26;;;;;;;17.65;6.82;;;7.40;68.20;;;;;;4179010;28;20125;-91
2022/05/05 05:44:27;;;;;;;16.67;6.05;;;7.50;67.90;;;;;;4184521;28;20024;-87
2022/05/05 05:46:27;;;;;;;11.15;5.50;;;7.60;67.90;;;;;;4183630;28;20031;-88
2022/05/05 05:48:28;;;;;;;15.45;4.35;;;7.70;67.60;;;;;;4186161;28;20031;-88
2022/05/05 05:50:30;;;;;;;11.73;4.13;;;7.80;67.20;;;;;;4188387;28;20029;-91
2022/05/05 05:52:31;;;;;;;16.27;4.13;;;7.90;67.00;;;;;;4197790;28;20032;-87
2022/05/05 05:54:32;;;;;;;14.50;4.93;;;8.00;66.70;;;;;;4191276;28;20024;-88
2022/05/05 05:56:33;;;;;;;10.23;4.18;;;8.10;67.10;;;;;;4186046;28;20245;-87
2022/05/05 05:58:38;;;;;;;9.57;4.20;;;8.10;67.00;;;;;;4185165;28;20029;-88
2022/05/05 06:00:39;;;;;;;10.52;3.97;;;8.30;66.40;;;;;;4200098;28;20028;-89
2022/05/05 06:04:59;;;;;;;9.35;3.22;;;8.50;66.20;;;;;;4202765;28;20032;-88
2022/05/05 06:07:00;;;;;;;14.43;4.72;;;8.60;65.60;;;;;;4188215;28;20534;-87
2022/05/05 06:09:01;;;;;;;9.63;3.67;;;8.70;65.10;;;;;;4185724;28;20040;-90
2022/05/05 06:11:01;;;;;;;12.98;3.40;;;8.70;65.70;;;;;;4194469;28;20086;-87
2022/05/05 06:13:03;;;;;;;13.73;3.78;;;8.80;64.80;;;;;;4206978;28;20027;-88
2022/05/05 06:15:04;;;;;;;15.15;4.28;;;8.90;65.20;;;;;;4176477;28;20457;-88
2022/05/05 06:17:05;;;;;;;11.02;3.10;;;9.00;64.50;;;;;;4192296;28;20107;-87
2022/05/05 06:19:05;;;;;;;9.60;3.05;;;9.10;64.10;;;;;;4193103;28;20016;-91
2022/05/05 06:21:06;;;;;;;9.27;3.35;;;9.10;63.80;;;;;;4177340;28;20040;-88
2022/05/05 06:23:07;;;;;;;9.25;2.90;;;9.20;63.70;;;;;;4193897;28;20438;-87
2022/05/05 06:25:11;;;;;;;11.25;4.45;;;9.30;63.80;;;;;;4192060;28;20060;-88
2022/05/05 06:27:12;;;;;;;8.35;4.03;;;9.40;63.70;;;;;;4192165;28;20060;-88
2022/05/05 06:29:15;;;;;;;12.00;3.03;;;9.50;63.50;;;;;;4192204;28;20036;-89
2022/05/05 06:31:16;;;;;;;;;;;9.50;62.90;;;;;;4191389;28;20499;-87
2022/05/05 06:33:17;;;;;;;6.15;2.17;;;9.70;62.50;;;;;;4187103;28;20020;-88
2022/05/05 06:35:17;;;;;;;9.88;2.83;;;9.70;62.60;;;;;;4194155;28;20020;-88
2022/05/05 06:37:18;;;;;;;6.50;2.40;;;9.80;62.60;;;;;;4194982;28;20453;-87
2022/05/05 06:39:18;;;;;;;9.75;2.88;;;9.90;62.50;;;;;;4189745;28;20627;-90
2022/05/05 06:41:20;;;;;;;5.68;1.98;;;10.00;61.20;;;;;;4177936;28;20020;-88
2022/05/05 06:43:20;;;;;;;7.85;2.15;;;10.10;61.00;;;;;;4205878;28;20031;-87
2022/05/05 06:45:22;;;;;;;9.95;2.75;;;10.20;61.30;;;;;;4178152;28;20554;-88
2022/05/05 06:47:24;;;;;;;11.35;3.55;;;10.20;60.10;;;;;;4186590;28;20044;-88
2022/05/05 06:49:25;;;;;;;7.40;2.60;;;10.30;60.00;;;;;;4193756;28;20041;-87
2022/05/05 06:51:26;;;;;;;9.50;3.00;;;10.30;60.70;;;;;;4189791;28;20388;-88
2022/05/05 06:53:26;;;;;;;6.53;2.83;;;10.40;59.80;;;;;;4198170;28;20051;-88
2022/05/05 06:55:27;;;;;;;9.70;2.60;;;10.40;59.80;;;;;;4192595;28;20033;-88
2022/05/05 06:57:29;;;;;;;6.25;3.05;;;10.50;59.50;;;;;;4195821;28;20481;-89
2022/05/05 06:59:30;;;;;;;9.13;3.03;;;10.50;59.20;;;;;;4187876;28;20054;-87
2022/05/05 07:05:23;;;;;;;10.27;2.58;;;10.70;59.20;;;;;;4183846;28;20020;-88
2022/05/05 07:06:10;;;;;;;8.75;2.35;;;10.70;59.40;;;;;;4187651;28;20449;-88
2022/05/05 07:08:11;;;;;;;6.47;2.10;;;10.80;59.40;;;;;;4189511;28;20029;-88
2022/05/05 07:12:32;;;;;;;9.38;2.63;;;11.00;58.90;;;;;;4187434;28;20020;-88
2022/05/05 07:14:33;;;;;;;7.93;2.30;;;11.00;58.40;;;;;;4169327;28;20112;-88
2022/05/05 07:16:34;;;;;;;9.00;2.45;;;11.10;58.10;;;;;;4192891;28;20025;-88
2022/05/05 07:18:35;;;;;;;8.98;2.63;;;11.20;57.70;;;;;;4194539;28;20028;-91
2022/05/05 07:20:36;;;;;;;12.45;2.75;;;11.20;58.00;;;;;;4192894;28;20020;-88
2022/05/05 07:22:36;;;;;;;9.07;2.65;;;11.20;57.20;;;;;;4190949;28;20029;-88
2022/05/05 07:24:37;;;;;;;13.55;3.50;;;11.20;57.20;;;;;;4188330;28;20108;-88
2022/05/05 07:26:38;;;;;;;14.88;6.05;;;11.40;57.40;;;;;;4203924;28;20024;-88
2022/05/05 07:28:39;;;;;;;39.75;12.77;;;11.40;57.50;;;;;;4191005;28;20110;-88
2022/05/05 07:30:42;;;;;;;24.23;7.72;;;11.40;57.50;;;;;;4186572;28;20024;-88
2022/05/05 07:32:43;;;;;;;21.75;7.28;;;11.40;57.20;;;;;;4187274;28;20516;-88
2022/05/05 07:34:43;;;;;;;10.43;4.15;;;11.50;57.10;;;;;;4183994;28;20032;-88
2022/05/05 07:36:45;;;;;;;6.47;2.50;;;11.50;56.80;;;;;;4187425;28;20021;-92
2022/05/05 07:38:45;;;;;;;11.85;3.17;;;11.60;57.20;;;;;;4201899;28;20048;-88
2022/05/05 07:40:46;;;;;;;9.40;2.97;;;11.60;56.60;;;;;;4195246;28;20032;-88
2022/05/05 07:42:47;;;;;;;7.88;2.47;;;11.70;56.50;;;;;;4192901;28;20028;-88
2022/05/05 07:44:47;;;;;;;9.48;2.78;;;11.70;56.30;;;;;;4190158;28;20103;-88
2022/05/05 07:46:48;;;;;;;9.93;4.28;;;11.70;55.90;;;;;;4189703;28;20033;-88
2022/05/05 07:48:49;;;;;;;12.13;3.92;;;11.70;55.90;;;;;;4187204;28;20482;-89
2022/05/05 07:50:49;;;;;;;14.32;3.85;;;11.80;56.00;;;;;;4187736;28;20035;-88
2022/05/05 07:52:57;;;;;;;7.80;2.70;;;11.80;55.90;;;;;;4201693;28;20032;-88
2022/05/05 07:54:58;;;;;;;8.68;2.85;;;11.90;55.70;;;;;;4182668;28;20071;-88
2022/05/05 07:56:59;;;;;;;8.85;2.20;;;11.90;55.70;;;;;;4187830;28;20032;-87
2022/05/05 07:59:00;;;;;;;10.93;2.78;;;12.00;55.60;;;;;;4188776;28;20385;-89
2022/05/05 08:01:00;;;;;;;6.32;2.38;;;12.00;55.40;;;;;;4202291;28;20024;-88
2022/05/05 08:03:04;;;;;;;8.35;2.63;;;12.00;55.30;;;;;;4191304;28;20571;-88
2022/05/05 08:05:08;;;;;;;8.50;3.08;;;12.00;55.20;;;;;;4180957;28;20044;-89
2022/05/05 08:07:12;;;;;;;11.38;3.05;;;12.10;55.20;;;;;;4181233;28;20152;-87
2022/05/05 08:09:12;;;;;;;19.27;3.58;;;12.10;55.20;;;;;;4186219;28;20068;-89
2022/05/05 08:11:13;;;;;;;8.98;3.17;;;12.10;55.30;;;;;;4175162;28;20024;-88
2022/05/05 08:13:14;;;;;;;8.73;3.15;;;12.10;55.40;;;;;;4189102;28;20039;-88
2022/05/05 08:15:16;;;;;;;7.03;2.78;;;12.20;55.30;;;;;;4191950;28;20029;-90
2022/05/05 08:17:17;;;;;;;8.98;2.80;;;12.30;55.50;;;;;;4188770;28;20071;-91
2022/05/05 08:19:17;;;;;;;6.47;2.60;;;12.20;55.00;;;;;;4203737;28;20024;-89
2022/05/05 08:21:18;;;;;;;5.55;1.98;;;12.30;54.90;;;;;;4192502;28;20124;-88
2022/05/05 08:23:19;;;;;;;12.07;2.63;;;12.30;53.70;;;;;;4186995;28;20037;-89
2022/05/05 08:32:03;;;;;;;12.07;2.70;;;12.40;53.20;;;;;;4187437;28;20040;-82
2022/05/05 08:34:04;;;;;;;7.70;2.45;;;12.40;53.30;;;;;;4166204;28;20065;-83
2022/05/05 08:36:06;;;;;;;9.50;2.85;;;12.50;53.40;;;;;;4187303;28;20025;-84
2022/05/05 08:38:07;;;;;;;11.98;2.42;;;12.50;53.10;;;;;;4187135;28;20094;-83
2022/05/05 08:40:10;;;;;;;12.45;2.42;;;12.60;53.60;;;;;;4188778;28;20033;-82
2022/05/05 08:42:11;;;;;;;7.90;2.35;;;12.60;53.10;;;;;;4176912;28;20033;-83
2022/05/05 08:44:12;;;;;;;6.95;2.15;;;12.70;52.70;;;;;;4165515;28;20032;-83
2022/05/05 08:46:13;;;;;;;10.23;2.20;;;12.80;52.50;;;;;;4166150;28;20400;-82
2022/05/05 08:48:14;;;;;;;6.13;2.42;;;12.90;52.60;;;;;;4165852;28;20084;-83
2022/05/05 08:50:15;;;;;;;9.18;2.88;;;13.00;52.80;;;;;;4170260;28;20503;-83
2022/05/05 08:52:20;;;;;;;6.05;2.50;;;13.00;52.80;;;;;;4164481;28;20041;-83
2022/05/05 08:54:23;;;;;;;12.73;2.47;;;13.10;52.80;;;;;;4158645;28;20119;-83
2022/05/05 08:56:25;;;;;;;11.82;2.22;;;13.20;52.60;;;;;;4176124;28;20460;-84
2022/05/05 08:58:26;;;;;;;9.60;2.30;;;13.30;52.60;;;;;;4168167;28;20036;-85
2022/05/05 09:00:27;;;;;;;7.90;2.58;;;13.30;52.50;;;;;;4167435;28;20029;-83
2022/05/05 09:02:28;;;;;;;9.23;2.90;;;13.40;52.60;;;;;;4171964;28;20103;-84
2022/05/05 09:04:29;;;;;;;12.07;2.95;;;13.40;52.50;;;;;;4182251;28;20025;-84
2022/05/05 09:06:46;;;;;;;10.93;2.92;;;13.50;51.80;;;;;;4164487;28;20089;-84
2022/05/05 09:08:47;;;;;;;8.38;2.47;;;13.60;51.40;;;;;;4165976;28;20032;-83
2022/05/05 09:10:50;;;;;;;9.45;2.47;;;13.60;51.40;;;;;;4169072;28;20107;-83
2022/05/05 09:12:58;;;;;;;7.93;2.60;;;13.60;51.00;;;;;;4167585;28;20032;-84
2022/05/05 09:14:59;;;;;;;10.13;2.28;;;13.70;51.30;;;;;;4165663;28;20492;-85
2022/05/05 09:17:06;;;;;;;11.43;2.33;;;13.80;51.20;;;;;;4175400;28;20013;-83
2022/05/05 09:19:10;;;;;;;10.93;2.15;;;13.80;50.80;;;;;;4183262;28;20025;-83
2022/05/05 09:21:10;;;;;;;10.20;2.20;;;13.90;51.20;;;;;;4182781;28;20305;-83
2022/05/05 09:23:37;;;;;;;12.07;2.22;;;13.90;50.40;;;;;;4169937;28;20104;-84
2022/05/05 09:25:47;;;;;;;7.55;2.10;;;13.90;49.50;;;;;;4169881;28;20036;-83
2022/05/05 09:27:51;;;;;;;6.53;2.17;;;14.00;49.60;;;;;;4172182;28;20029;-83
2022/05/05 09:30:12;;;;;;;12.77;2.20;;;14.00;49.60;;;;;;4167070;28;20030;-84
2022/05/05 09:32:13;;;;;;;10.65;2.38;;;14.10;49.40;;;;;;4168853;28;20467;-84
2022/05/05 09:34:20;;;;;;;11.30;2.15;;;14.20;49.60;;;;;;4171779;28;20021;-84
2022/05/05 09:36:28;;;;;;;8.20;2.03;;;14.20;49.00;;;;;;4167507;28;20064;-84
2022/05/05 09:38:50;;;;;;;8.52;2.28;;;14.20;49.30;;;;;;4171269;28;20493;-84
2022/05/05 09:41:06;;;;;;;9.23;2.33;;;14.30;49.40;;;;;;4172962;28;20025;-84
2022/05/05 09:43:10;;;;;;;8.20;2.30;;;14.40;49.30;;;;;;4169224;28;20040;-83
2022/05/05 09:45:29;;;;;;;8.20;2.97;;;14.50;48.90;;;;;;4168194;28;20044;-84
2022/05/05 09:47:30;;;;;;;15.13;2.75;;;14.50;48.10;;;;;;4168554;28;20546;-85
2022/05/05 09:49:31;;;;;;;9.52;2.78;;;14.50;48.60;;;;;;4188391;28;20033;-83
2022/05/05 09:51:32;;;;;;;10.13;2.45;;;14.60;48.80;;;;;;4184561;28;20111;-85
2022/05/05 09:58:16;;;;;;;12.18;2.67;;;14.80;49.10;;;;;;4174109;28;20021;-85
2022/05/05 10:00:36;;;;;;;7.90;2.58;;;14.80;49.00;;;;;;4170241;28;20020;-84
2022/05/05 10:04:58;;;;;;;6.75;2.30;;;14.90;48.70;;;;;;4169808;28;20032;-86
2022/05/05 10:07:02;;;;;;;9.55;2.92;;;14.90;48.60;;;;;;4164770;28;20033;-85
2022/05/05 10:09:06;;;;;;;11.60;2.92;;;14.90;48.70;;;;;;4168994;28;20120;-84
2022/05/05 10:11:07;;;;;;;5.93;2.63;;;15.00;48.60;;;;;;4170715;28;20037;-85
2022/05/05 10:13:10;;;;;;;4.95;2.50;;;15.00;48.70;;;;;;4170945;28;20025;-85
2022/05/05 10:15:12;;;;;;;9.70;2.60;;;15.00;48.80;;;;;;4183465;28;20029;-85
2022/05/05 10:17:14;;;;;;;10.23;3.10;;;14.90;49.00;;;;;;4187650;28;20443;-84
2022/05/05 10:19:15;;;;;;;8.15;2.95;;;15.00;49.00;;;;;;4172572;28;20026;-85
2022/05/05 10:21:54;;;;;;;15.27;2.72;;;15.00;48.80;;;;;;4169565;28;20029;-85
2022/05/05 10:24:27;;;;;;;8.68;2.63;;;14.90;48.70;;;;;;4185856;28;20038;-85
2022/05/05 10:26:31;;;;;;;9.30;3.13;;;14.90;49.10;;;;;;4161316;28;20076;-85
2022/05/05 10:28:44;;;;;;;11.73;3.00;;;15.00;49.20;;;;;;4149762;28;20054;-86
2022/05/05 10:30:45;;;;;;;16.80;3.03;;;14.90;49.20;;;;;;4179033;28;20033;-85
2022/05/05 10:32:45;;;;;;;14.05;3.55;;;14.90;49.50;;;;;;4171607;28;20159;-85
2022/05/05 10:34:54;;;;;;;8.55;3.03;;;14.90;49.40;;;;;;4176500;28;20017;-85
2022/05/05 10:37:04;;;;;;;10.95;3.15;;;14.90;49.50;;;;;;4170813;28;20098;-84
2022/05/05 10:39:18;;;;;;;12.15;3.40;;;14.90;49.80;;;;;;4166505;28;20033;-86
2022/05/05 10:41:35;;;;;;;9.60;3.33;;;15.00;50.40;;;;;;4170488;28;20060;-85
2022/05/05 10:43:36;;;;;;;11.18;3.67;;;15.10;50.20;;;;;;4180781;28;20309;-85
2022/05/05 10:45:36;;;;;;;15.60;3.25;;;15.10;50.40;;;;;;4173085;28;20024;-85
2022/05/05 10:47:55;;;;;;;16.70;3.67;;;15.20;50.20;;;;;;4182630;28;20029;-83
2022/05/05 10:49:56;;;;;;;15.70;3.75;;;15.20;49.70;;;;;;4162561;28;20030;-84
2022/05/05 10:52:11;;;;;;;10.30;3.35;;;15.20;49.20;;;;;;4171546;28;20035;-85
2022/05/05 10:54:24;;;;;;;8.02;2.85;;;15.30;49.20;;;;;;4193280;28;20048;-84
2022/05/05 10:56:30;;;;;;;9.85;3.13;;;15.30;49.40;;;;;;4192819;28;20128;-86
2022/05/05 10:58:56;;;;;;;11.10;3.47;;;15.30;48.90;;;;;;4166862;28;20025;-85
2022/05/05 11:00:59;;;;;;;13.52;2.95;;;15.30;48.70;;;;;;4181369;28;20061;-87
2022/05/05 11:03:03;;;;;;;9.55;2.63;;;15.30;48.70;;;;;;4167574;28;20049;-85
2022/05/05 11:05:27;;;;;;;12.02;2.78;;;15.20;48.70;;;;;;4168789;28;20033;-84
2022/05/05 11:07:30;;;;;;;;;;;15.20;48.70;;;;;;4181948;28;20034;-85
2022/05/05 11:09:32;;;;;;;6.88;2.70;;;15.20;48.80;;;;;;4179389;28;19932;-84
2022/05/05 11:11:42;;;;;;;7.28;2.40;;;15.10;48.40;;;;;;4164951;28;20025;-85
2022/05/05 11:13:44;;;;;;;6.82;2.35;;;15.10;48.30;;;;;;4166289;28;20458;-85
2022/05/05 11:22:53;;;;;;;7.13;2.30;;;14.90;48.30;;;;;;4171205;28;20090;-83